sensor_id;sensor_type;location;lat;lon;timestamp;pressure;altitude;pressure_sealevel;temperature;humidity
36380;BME280;22411;53.016;18.632;2023-08-07T00:00:27;98886.59;;;13.21;100.00
36380;BME280;22411;53.016;18.632;2023-08-07T00:03:13;98896.03;;;13.14;100.00
36380;BME280;22411;53.016;18.632;2023-08-07T00:05:47;98893.91;;;13.17;100.00
36380;BME280;22411;53.016;18.632;2023-08-07T00:08:13;98887.53;;;13.12;100.00
36380;BME280;22411;53.016;18.632;2023-08-07T00:10:39;98900.06;;;13.08;100.00
36380;BME280;22411;53.016;18.632;2023-08-07T00:13:05;98896.81;;;13.06;100.00
36380;BME280;22411;53.016;18.632;2023-08-07T00:15:30;98895.19;;;13.05;100.00
36380;BME280;22411;53.016;18.632;2023-08-07T00:17:56;98889.69;;;13.08;100.00
36380;BME280;22411;53.016;18.632;2023-08-07T00:20:22;98900.69;;;13.02;100.00
36380;BME280;22411;53.016;18.632;2023-08-07T00:22:48;98890.28;;;13.02;100.00
36380;BME280;22411;53.016;18.632;2023-08-07T00:25:13;98886.56;;;13.04;100.00
36380;BME280;22411;53.016;18.632;2023-08-07T00:27:39;98893.38;;;12.97;100.00
36380;BME280;22411;53.016;18.632;2023-08-07T00:30:05;98891.09;;;12.94;100.00
36380;BME280;22411;53.016;18.632;2023-08-07T00:32:30;98889.47;;;12.93;100.00
36380;BME280;22411;53.016;18.632;2023-08-07T00:34:56;98885.38;;;12.91;100.00
36380;BME280;22411;53.016;18.632;2023-08-07T00:37:22;98880.34;;;12.89;100.00
36380;BME280;22411;53.016;18.632;2023-08-07T00:39:48;98881.69;;;12.93;100.00
36380;BME280;22411;53.016;18.632;2023-08-07T00:42:13;98873.38;;;12.90;100.00
36380;BME280;22411;53.016;18.632;2023-08-07T00:44:39;98875.50;;;12.94;100.00
36380;BME280;22411;53.016;18.632;2023-08-07T00:47:05;98879.22;;;12.92;100.00
36380;BME280;22411;53.016;18.632;2023-08-07T00:49:32;98880.69;;;12.94;100.00
36380;BME280;22411;53.016;18.632;2023-08-07T00:51:58;98884.56;;;12.90;100.00
36380;BME280;22411;53.016;18.632;2023-08-07T00:54:25;98872.91;;;12.94;100.00
36380;BME280;22411;53.016;18.632;2023-08-07T00:56:50;98877.94;;;12.96;100.00
36380;BME280;22411;53.016;18.632;2023-08-07T00:59:16;98881.34;;;12.96;100.00
36380;BME280;22411;53.016;18.632;2023-08-07T01:01:44;98889.47;;;12.93;100.00
36380;BME280;22411;53.016;18.632;2023-08-07T01:04:09;98896.00;;;12.97;100.00
36380;BME280;22411;53.016;18.632;2023-08-07T01:06:35;98898.91;;;12.94;100.00
36380;BME280;22411;53.016;18.632;2023-08-07T01:09:01;98896.47;;;13.01;100.00
36380;BME280;22411;53.016;18.632;2023-08-07T01:11:45;98895.00;;;12.98;100.00
36380;BME280;22411;53.016;18.632;2023-08-07T01:16:51;98895.00;;;13.06;100.00
36380;BME280;22411;53.016;18.632;2023-08-07T01:19:24;98875.66;;;13.01;100.00
36380;BME280;22411;53.016;18.632;2023-08-07T01:22:03;98884.78;;;13.05;100.00
36380;BME280;22411;53.016;18.632;2023-08-07T01:24:29;98884.44;;;13.00;100.00
36380;BME280;22411;53.016;18.632;2023-08-07T01:26:57;98894.19;;;13.06;100.00
36380;BME280;22411;53.016;18.632;2023-08-07T01:29:44;98879.41;;;13.06;100.00
36380;BME280;22411;53.016;18.632;2023-08-07T01:32:18;98888.53;;;13.02;100.00
36380;BME280;22411;53.016;18.632;2023-08-07T01:34:48;98883.00;;;13.05;100.00
36380;BME280;22411;53.016;18.632;2023-08-07T01:37:15;98877.63;;;13.07;100.00
36380;BME280;22411;53.016;18.632;2023-08-07T01:39:42;98880.38;;;13.05;100.00
36380;BME280;22411;53.016;18.632;2023-08-07T01:42:09;98892.75;;;13.03;100.00
36380;BME280;22411;53.016;18.632;2023-08-07T01:44:36;98881.38;;;13.04;100.00
36380;BME280;22411;53.016;18.632;2023-08-07T01:47:02;98885.75;;;13.04;100.00
36380;BME280;22411;53.016;18.632;2023-08-07T01:49:27;98881.84;;;13.00;100.00
36380;BME280;22411;53.016;18.632;2023-08-07T01:51:53;98886.75;;;13.11;100.00
36380;BME280;22411;53.016;18.632;2023-08-07T01:54:19;98877.97;;;13.04;100.00
36380;BME280;22411;53.016;18.632;2023-08-07T01:56:44;98883.16;;;13.04;100.00
36380;BME280;22411;53.016;18.632;2023-08-07T01:59:10;98880.06;;;13.00;100.00
36380;BME280;22411;53.016;18.632;2023-08-07T02:01:35;98888.31;;;12.96;100.00
36380;BME280;22411;53.016;18.632;2023-08-07T02:04:01;98870.47;;;13.01;100.00
36380;BME280;22411;53.016;18.632;2023-08-07T02:06:27;98891.13;;;13.02;100.00
36380;BME280;22411;53.016;18.632;2023-08-07T02:08:52;98882.34;;;13.03;100.00
36380;BME280;22411;53.016;18.632;2023-08-07T02:11:18;98878.25;;;13.01;100.00
36380;BME280;22411;53.016;18.632;2023-08-07T02:13:44;98870.78;;;12.98;100.00
36380;BME280;22411;53.016;18.632;2023-08-07T02:16:09;98878.59;;;12.98;100.00
36380;BME280;22411;53.016;18.632;2023-08-07T02:18:35;98874.50;;;12.95;100.00
36380;BME280;22411;53.016;18.632;2023-08-07T02:21:01;98871.91;;;12.87;100.00
36380;BME280;22411;53.016;18.632;2023-08-07T02:23:26;98873.38;;;12.81;100.00
36380;BME280;22411;53.016;18.632;2023-08-07T02:25:54;98858.72;;;12.80;100.00
36380;BME280;22411;53.016;18.632;2023-08-07T02:28:20;98857.75;;;12.81;100.00
36380;BME280;22411;53.016;18.632;2023-08-07T02:30:46;98863.78;;;12.82;100.00
36380;BME280;22411;53.016;18.632;2023-08-07T02:33:14;98869.13;;;12.80;100.00
36380;BME280;22411;53.016;18.632;2023-08-07T02:35:40;98866.34;;;12.74;100.00
36380;BME280;22411;53.016;18.632;2023-08-07T02:38:06;98872.50;;;12.73;100.00
36380;BME280;22411;53.016;18.632;2023-08-07T02:40:31;98865.53;;;12.73;100.00
36380;BME280;22411;53.016;18.632;2023-08-07T02:42:57;98862.28;;;12.71;100.00
36380;BME280;22411;53.016;18.632;2023-08-07T02:45:22;98867.47;;;12.71;100.00
36380;BME280;22411;53.016;18.632;2023-08-07T02:47:48;98874.78;;;12.76;100.00
36380;BME280;22411;53.016;18.632;2023-08-07T02:50:14;98870.09;;;12.71;100.00
36380;BME280;22411;53.016;18.632;2023-08-07T02:52:40;98889.72;;;12.74;100.00
36380;BME280;22411;53.016;18.632;2023-08-07T02:55:05;98879.66;;;12.71;100.00
36380;BME280;22411;53.016;18.632;2023-08-07T02:57:31;98881.75;;;12.75;100.00
36380;BME280;22411;53.016;18.632;2023-08-07T02:59:57;98879.69;;;12.79;100.00
36380;BME280;22411;53.016;18.632;2023-08-07T03:02:22;98879.84;;;12.77;100.00
36380;BME280;22411;53.016;18.632;2023-08-07T03:04:48;98885.38;;;12.82;100.00
36380;BME280;22411;53.016;18.632;2023-08-07T03:07:14;98893.66;;;12.86;100.00
36380;BME280;22411;53.016;18.632;2023-08-07T03:09:39;98894.97;;;12.90;100.00
36380;BME280;22411;53.016;18.632;2023-08-07T03:12:05;98893.88;;;12.93;100.00
36380;BME280;22411;53.016;18.632;2023-08-07T03:14:31;98882.16;;;12.97;100.00
36380;BME280;22411;53.016;18.632;2023-08-07T03:16:57;98894.34;;;12.96;100.00
36380;BME280;22411;53.016;18.632;2023-08-07T03:19:22;98891.59;;;12.98;100.00
36380;BME280;22411;53.016;18.632;2023-08-07T03:21:48;98885.09;;;12.94;100.00
36380;BME280;22411;53.016;18.632;2023-08-07T03:24:13;98890.91;;;12.88;100.00
36380;BME280;22411;53.016;18.632;2023-08-07T03:26:39;98894.81;;;12.92;100.00
36380;BME280;22411;53.016;18.632;2023-08-07T03:29:05;98883.13;;;12.96;100.00
36380;BME280;22411;53.016;18.632;2023-08-07T03:31:31;98885.09;;;12.94;100.00
36380;BME280;22411;53.016;18.632;2023-08-07T03:33:57;98890.91;;;12.88;100.00
36380;BME280;22411;53.016;18.632;2023-08-07T03:36:28;98901.66;;;12.93;100.00
36380;BME280;22411;53.016;18.632;2023-08-07T03:38:54;98892.53;;;12.89;100.00
36380;BME280;22411;53.016;18.632;2023-08-07T03:41:20;98902.31;;;12.95;100.00
36380;BME280;22411;53.016;18.632;2023-08-07T03:43:45;98908.31;;;12.95;100.00
36380;BME280;22411;53.016;18.632;2023-08-07T03:46:11;98904.94;;;13.03;100.00
36380;BME280;22411;53.016;18.632;2023-08-07T03:48:38;98896.47;;;13.01;100.00
36380;BME280;22411;53.016;18.632;2023-08-07T03:51:07;98901.19;;;13.05;100.00
36380;BME280;22411;53.016;18.632;2023-08-07T03:53:36;98905.88;;;13.02;100.00
36380;BME280;22411;53.016;18.632;2023-08-07T03:56:03;98911.44;;;12.99;100.00
36380;BME280;22411;53.016;18.632;2023-08-07T03:58:29;98917.44;;;13.07;100.00
36380;BME280;22411;53.016;18.632;2023-08-07T04:00:55;98921.19;;;13.05;100.00
36380;BME280;22411;53.016;18.632;2023-08-07T04:03:21;98923.16;;;13.03;100.00
36380;BME280;22411;53.016;18.632;2023-08-07T04:05:51;98933.72;;;13.09;100.00
36380;BME280;22411;53.016;18.632;2023-08-07T04:08:17;98932.25;;;13.07;100.00
36380;BME280;22411;53.016;18.632;2023-08-07T04:10:43;98925.88;;;13.01;100.00
36380;BME280;22411;53.016;18.632;2023-08-07T04:13:08;98918.41;;;13.06;100.00
36380;BME280;22411;53.016;18.632;2023-08-07T04:15:34;98938.25;;;12.99;100.00
36380;BME280;22411;53.016;18.632;2023-08-07T04:18:00;98929.50;;;13.08;100.00
36380;BME280;22411;53.016;18.632;2023-08-07T04:20:26;98937.44;;;13.07;100.00
36380;BME280;22411;53.016;18.632;2023-08-07T04:22:52;98938.41;;;13.06;100.00
36380;BME280;22411;53.016;18.632;2023-08-07T04:25:17;98936.78;;;13.05;100.00
36380;BME280;22411;53.016;18.632;2023-08-07T04:27:43;98921.50;;;13.02;100.00
36380;BME280;22411;53.016;18.632;2023-08-07T04:30:09;98935.19;;;13.12;100.00
36380;BME280;22411;53.016;18.632;2023-08-07T04:32:35;98941.69;;;13.08;100.00
36380;BME280;22411;53.016;18.632;2023-08-07T04:35:01;98932.91;;;13.09;100.00
36380;BME280;22411;53.016;18.632;2023-08-07T04:37:26;98934.38;;;13.03;100.00
36380;BME280;22411;53.016;18.632;2023-08-07T04:39:52;98945.75;;;13.11;100.00
36380;BME280;22411;53.016;18.632;2023-08-07T04:42:19;98949.00;;;13.13;100.00
36380;BME280;22411;53.016;18.632;2023-08-07T04:44:45;98945.56;;;13.04;100.00
36380;BME280;22411;53.016;18.632;2023-08-07T04:47:11;98950.31;;;13.08;100.00
36380;BME280;22411;53.016;18.632;2023-08-07T04:49:36;98967.06;;;13.14;100.00
36380;BME280;22411;53.016;18.632;2023-08-07T04:52:02;98976.16;;;13.10;100.00
36380;BME280;22411;53.016;18.632;2023-08-07T04:54:28;98964.47;;;13.14;100.00
36380;BME280;22411;53.016;18.632;2023-08-07T04:56:53;98966.25;;;13.14;100.00
36380;BME280;22411;53.016;18.632;2023-08-07T04:59:19;98973.13;;;13.23;100.00
36380;BME280;22411;53.016;18.632;2023-08-07T05:01:45;98977.00;;;13.19;100.00
36380;BME280;22411;53.016;18.632;2023-08-07T05:04:10;98982.34;;;13.17;100.00
36380;BME280;22411;53.016;18.632;2023-08-07T05:06:36;98997.66;;;13.20;100.00
36380;BME280;22411;53.016;18.632;2023-08-07T05:09:02;99000.78;;;13.24;100.00
36380;BME280;22411;53.016;18.632;2023-08-07T05:11:28;98989.53;;;13.23;100.00
36380;BME280;22411;53.016;18.632;2023-08-07T05:13:54;99004.75;;;13.10;100.00
36380;BME280;22411;53.016;18.632;2023-08-07T05:16:19;98996.28;;;13.00;100.00
36380;BME280;22411;53.016;18.632;2023-08-07T05:18:45;99009.44;;;12.98;100.00
36380;BME280;22411;53.016;18.632;2023-08-07T05:21:11;98994.94;;;12.88;100.00
36380;BME280;22411;53.016;18.632;2023-08-07T05:23:37;99010.81;;;12.85;100.00
36380;BME280;22411;53.016;18.632;2023-08-07T05:26:02;99004.34;;;12.89;100.00
36380;BME280;22411;53.016;18.632;2023-08-07T05:28:28;99000.44;;;12.85;100.00
36380;BME280;22411;53.016;18.632;2023-08-07T05:30:54;99005.28;;;12.79;100.00
36380;BME280;22411;53.016;18.632;2023-08-07T05:33:20;99011.56;;;12.69;100.00
36380;BME280;22411;53.016;18.632;2023-08-07T05:35:45;99007.84;;;12.71;100.00
36380;BME280;22411;53.016;18.632;2023-08-07T05:38:11;99002.50;;;12.73;100.00
36380;BME280;22411;53.016;18.632;2023-08-07T05:40:37;99007.34;;;12.68;100.00
36380;BME280;22411;53.016;18.632;2023-08-07T05:43:03;99005.03;;;12.65;100.00
36380;BME280;22411;53.016;18.632;2023-08-07T05:45:28;99006.53;;;12.67;100.00
36380;BME280;22411;53.016;18.632;2023-08-07T05:47:54;99016.91;;;12.67;100.00
36380;BME280;22411;53.016;18.632;2023-08-07T05:50:19;99010.44;;;12.71;100.00
36380;BME280;22411;53.016;18.632;2023-08-07T05:52:45;99027.56;;;12.82;100.00
36380;BME280;22411;53.016;18.632;2023-08-07T05:55:11;99018.28;;;12.79;100.00
36380;BME280;22411;53.016;18.632;2023-08-07T05:57:37;99019.25;;;12.78;100.00
36380;BME280;22411;53.016;18.632;2023-08-07T06:00:03;99010.81;;;12.76;100.00
36380;BME280;22411;53.016;18.632;2023-08-07T06:02:29;99010.13;;;12.74;100.00
36380;BME280;22411;53.016;18.632;2023-08-07T06:04:54;99018.59;;;12.76;100.00
36380;BME280;22411;53.016;18.632;2023-08-07T06:07:20;99021.69;;;12.80;100.00
36380;BME280;22411;53.016;18.632;2023-08-07T06:09:46;99024.00;;;12.83;100.00
36380;BME280;22411;53.016;18.632;2023-08-07T06:12:11;99021.22;;;12.85;100.00
36380;BME280;22411;53.016;18.632;2023-08-07T06:14:37;99019.59;;;12.83;100.00
36380;BME280;22411;53.016;18.632;2023-08-07T06:17:04;99024.00;;;12.83;100.00
36380;BME280;22411;53.016;18.632;2023-08-07T06:19:29;99028.66;;;12.79;100.00
36380;BME280;22411;53.016;18.632;2023-08-07T06:21:55;99030.81;;;12.84;100.00
36380;BME280;22411;53.016;18.632;2023-08-07T06:24:21;99036.19;;;12.82;100.00
36380;BME280;22411;53.016;18.632;2023-08-07T06:26:47;99037.75;;;12.75;100.00
36380;BME280;22411;53.016;18.632;2023-08-07T06:29:12;99040.03;;;12.78;100.00
36380;BME280;22411;53.016;18.632;2023-08-07T06:31:38;99045.25;;;12.78;100.00
36380;BME280;22411;53.016;18.632;2023-08-07T06:34:07;99045.53;;;12.75;100.00
36380;BME280;22411;53.016;18.632;2023-08-07T06:36:33;99042.94;;;12.75;100.00
36380;BME280;22411;53.016;18.632;2023-08-07T06:38:58;99031.69;;;12.67;100.00
36380;BME280;22411;53.016;18.632;2023-08-07T06:41:26;99046.31;;;12.68;100.00
36380;BME280;22411;53.016;18.632;2023-08-07T06:43:52;99046.63;;;12.65;100.00
36380;BME280;22411;53.016;18.632;2023-08-07T06:46:17;99048.38;;;12.56;100.00
36380;BME280;22411;53.016;18.632;2023-08-07T06:48:43;99052.13;;;12.62;100.00
36380;BME280;22411;53.016;18.632;2023-08-07T06:51:09;99047.94;;;12.69;100.00
36380;BME280;22411;53.016;18.632;2023-08-07T06:53:35;99046.50;;;12.74;100.00
36380;BME280;22411;53.016;18.632;2023-08-07T06:56:00;99057.72;;;12.75;100.00
36380;BME280;22411;53.016;18.632;2023-08-07T06:58:26;99048.56;;;12.89;100.00
36380;BME280;22411;53.016;18.632;2023-08-07T07:00:52;99055.91;;;13.01;100.00
36380;BME280;22411;53.016;18.632;2023-08-07T07:03:17;99066.72;;;13.15;100.00
36380;BME280;22411;53.016;18.632;2023-08-07T07:05:43;99062.78;;;13.37;100.00
36380;BME280;22411;53.016;18.632;2023-08-07T07:08:09;99073.06;;;13.46;100.00
36380;BME280;22411;53.016;18.632;2023-08-07T07:10:34;99057.16;;;13.57;100.00
36380;BME280;22411;53.016;18.632;2023-08-07T07:13:00;99073.09;;;13.63;100.00
36380;BME280;22411;53.016;18.632;2023-08-07T07:15:26;99061.06;;;13.70;100.00
36380;BME280;22411;53.016;18.632;2023-08-07T07:17:51;99074.63;;;13.81;100.00
36380;BME280;22411;53.016;18.632;2023-08-07T07:20:18;99075.59;;;13.97;100.00
36380;BME280;22411;53.016;18.632;2023-08-07T07:22:44;99072.19;;;14.04;100.00
36380;BME280;22411;53.016;18.632;2023-08-07T07:25:09;99075.59;;;14.13;100.00
36380;BME280;22411;53.016;18.632;2023-08-07T07:27:35;99087.53;;;14.24;100.00
36380;BME280;22411;53.016;18.632;2023-08-07T07:30:01;99087.50;;;14.32;100.00
36380;BME280;22411;53.016;18.632;2023-08-07T07:32:26;99088.81;;;14.36;100.00
36380;BME280;22411;53.016;18.632;2023-08-07T07:34:52;99095.34;;;14.32;100.00
36380;BME280;22411;53.016;18.632;2023-08-07T07:37:18;99097.63;;;14.35;100.00
36380;BME280;22411;53.016;18.632;2023-08-07T07:39:43;99119.59;;;14.32;100.00
36380;BME280;22411;53.016;18.632;2023-08-07T07:42:09;99106.41;;;14.26;100.00
36380;BME280;22411;53.016;18.632;2023-08-07T07:44:35;99101.84;;;14.28;100.00
36380;BME280;22411;53.016;18.632;2023-08-07T07:47:05;99114.88;;;14.44;100.00
36380;BME280;22411;53.016;18.632;2023-08-07T07:49:32;99112.94;;;14.46;100.00
36380;BME280;22411;53.016;18.632;2023-08-07T07:51:58;99110.47;;;14.45;100.00
36380;BME280;22411;53.016;18.632;2023-08-07T07:54:24;99092.44;;;14.51;100.00
36380;BME280;22411;53.016;18.632;2023-08-07T07:56:49;99111.13;;;14.38;100.00
36380;BME280;22411;53.016;18.632;2023-08-07T07:59:15;99102.19;;;14.41;100.00
36380;BME280;22411;53.016;18.632;2023-08-07T08:01:41;99111.00;;;14.40;100.00
36380;BME280;22411;53.016;18.632;2023-08-07T08:04:07;99105.59;;;14.42;100.00
36380;BME280;22411;53.016;18.632;2023-08-07T08:06:33;99118.50;;;14.51;100.00
36380;BME280;22411;53.016;18.632;2023-08-07T08:08:58;99139.66;;;14.40;100.00
36380;BME280;22411;53.016;18.632;2023-08-07T08:11:24;99133.94;;;14.36;100.00
36380;BME280;22411;53.016;18.632;2023-08-07T08:13:50;99135.56;;;14.29;100.00
36380;BME280;22411;53.016;18.632;2023-08-07T08:16:16;99143.88;;;14.33;100.00
36380;BME280;22411;53.016;18.632;2023-08-07T08:18:42;99142.56;;;14.37;100.00
36380;BME280;22411;53.016;18.632;2023-08-07T08:21:07;99150.09;;;14.40;100.00
36380;BME280;22411;53.016;18.632;2023-08-07T08:23:33;99147.81;;;14.45;100.00
36380;BME280;22411;53.016;18.632;2023-08-07T08:25:58;99159.88;;;14.54;100.00
36380;BME280;22411;53.016;18.632;2023-08-07T08:28:24;99158.09;;;14.71;100.00
36380;BME280;22411;53.016;18.632;2023-08-07T08:30:50;99155.97;;;14.83;100.00
36380;BME280;22411;53.016;18.632;2023-08-07T08:33:15;99160.84;;;14.94;100.00
36380;BME280;22411;53.016;18.632;2023-08-07T08:35:42;99166.03;;;15.02;100.00
36380;BME280;22411;53.016;18.632;2023-08-07T08:38:09;99162.13;;;15.06;100.00
36380;BME280;22411;53.016;18.632;2023-08-07T08:40:35;99163.88;;;15.30;100.00
36380;BME280;22411;53.016;18.632;2023-08-07T08:43:04;99176.56;;;15.41;100.00
36380;BME280;22411;53.016;18.632;2023-08-07T08:45:30;99173.44;;;15.46;100.00
36380;BME280;22411;53.016;18.632;2023-08-07T08:48:02;99183.84;;;15.62;100.00
36380;BME280;22411;53.016;18.632;2023-08-07T08:50:29;99175.25;;;15.93;100.00
36380;BME280;22411;53.016;18.632;2023-08-07T08:52:56;99188.38;;;16.08;100.00
36380;BME280;22411;53.016;18.632;2023-08-07T08:55:22;99174.47;;;16.15;100.00
36380;BME280;22411;53.016;18.632;2023-08-07T08:57:49;99185.50;;;16.48;100.00
36380;BME280;22411;53.016;18.632;2023-08-07T09:00:16;99184.00;;;16.54;100.00
36380;BME280;22411;53.016;18.632;2023-08-07T09:02:47;99201.56;;;16.68;100.00
36380;BME280;22411;53.016;18.632;2023-08-07T09:05:17;99204.13;;;16.77;100.00
36380;BME280;22411;53.016;18.632;2023-08-07T09:07:44;99203.16;;;16.78;100.00
36380;BME280;22411;53.016;18.632;2023-08-07T09:10:12;99191.41;;;16.73;100.00
36380;BME280;22411;53.016;18.632;2023-08-07T09:12:41;99191.44;;;16.65;100.00
36380;BME280;22411;53.016;18.632;2023-08-07T09:15:09;99198.13;;;16.68;100.00
36380;BME280;22411;53.016;18.632;2023-08-07T09:17:40;99202.59;;;16.36;100.00
36380;BME280;22411;53.016;18.632;2023-08-07T09:20:09;99216.81;;;16.34;100.00
36380;BME280;22411;53.016;18.632;2023-08-07T09:22:40;99213.56;;;16.32;100.00
36380;BME280;22411;53.016;18.632;2023-08-07T09:25:06;99211.09;;;16.61;100.00
36380;BME280;22411;53.016;18.632;2023-08-07T09:27:32;99204.78;;;16.79;100.00
36380;BME280;22411;53.016;18.632;2023-08-07T09:29:58;99198.16;;;17.06;100.00
36380;BME280;22411;53.016;18.632;2023-08-07T09:32:24;99197.66;;;17.25;100.00
36380;BME280;22411;53.016;18.632;2023-08-07T09:34:51;99200.09;;;17.41;100.00
36380;BME280;22411;53.016;18.632;2023-08-07T09:37:19;99183.72;;;17.39;100.00
36380;BME280;22411;53.016;18.632;2023-08-07T09:39:46;99210.09;;;17.38;100.00
36380;BME280;22411;53.016;18.632;2023-08-07T09:42:15;99185.28;;;17.34;100.00
36380;BME280;22411;53.016;18.632;2023-08-07T09:44:41;99198.28;;;17.42;100.00
36380;BME280;22411;53.016;18.632;2023-08-07T09:47:17;99194.47;;;17.44;100.00
36380;BME280;22411;53.016;18.632;2023-08-07T09:49:44;99189.25;;;17.44;100.00
36380;BME280;22411;53.016;18.632;2023-08-07T09:52:11;99172.09;;;17.42;100.00
36380;BME280;22411;53.016;18.632;2023-08-07T09:54:39;99176.06;;;17.38;100.00
36380;BME280;22411;53.016;18.632;2023-08-07T09:57:05;99164.31;;;17.63;100.00
36380;BME280;22411;53.016;18.632;2023-08-07T09:59:33;99166.56;;;17.81;100.00
36380;BME280;22411;53.016;18.632;2023-08-07T10:02:02;99164.34;;;17.78;100.00
36380;BME280;22411;53.016;18.632;2023-08-07T10:04:29;99182.16;;;18.04;100.00
36380;BME280;22411;53.016;18.632;2023-08-07T10:06:56;99199.25;;;18.00;100.00
36380;BME280;22411;53.016;18.632;2023-08-07T10:09:21;99182.41;;;17.88;100.00
36380;BME280;22411;53.016;18.632;2023-08-07T10:11:48;99179.44;;;17.97;100.00
36380;BME280;22411;53.016;18.632;2023-08-07T10:14:15;99194.63;;;18.02;100.00
36380;BME280;22411;53.016;18.632;2023-08-07T10:16:41;99202.78;;;17.92;100.00
36380;BME280;22411;53.016;18.632;2023-08-07T10:19:11;99207.81;;;17.72;100.00
36380;BME280;22411;53.016;18.632;2023-08-07T10:21:39;99222.13;;;17.91;100.00
36380;BME280;22411;53.016;18.632;2023-08-07T10:24:06;99228.88;;;18.15;100.00
36380;BME280;22411;53.016;18.632;2023-08-07T10:26:34;99221.50;;;17.89;100.00
36380;BME280;22411;53.016;18.632;2023-08-07T10:29:05;99235.94;;;17.70;100.00
36380;BME280;22411;53.016;18.632;2023-08-07T10:31:33;99229.53;;;17.43;100.00
36380;BME280;22411;53.016;18.632;2023-08-07T10:34:01;99229.41;;;17.22;100.00
36380;BME280;22411;53.016;18.632;2023-08-07T10:36:34;99245.31;;;17.20;100.00
36380;BME280;22411;53.016;18.632;2023-08-07T10:39:12;99258.06;;;17.01;100.00
36380;BME280;22411;53.016;18.632;2023-08-07T10:41:39;99249.47;;;16.92;100.00
36380;BME280;22411;53.016;18.632;2023-08-07T10:44:18;99264.00;;;16.94;100.00
36380;BME280;22411;53.016;18.632;2023-08-07T10:46:56;99265.06;;;16.85;100.00
36380;BME280;22411;53.016;18.632;2023-08-07T10:49:42;99269.28;;;16.86;100.00
36380;BME280;22411;53.016;18.632;2023-08-07T10:52:12;99261.53;;;16.78;100.00
36380;BME280;22411;53.016;18.632;2023-08-07T10:54:45;99266.75;;;16.70;100.00
36380;BME280;22411;53.016;18.632;2023-08-07T10:57:13;99274.31;;;16.42;100.00
36380;BME280;22411;53.016;18.632;2023-08-07T10:59:44;99281.06;;;16.28;100.00
36380;BME280;22411;53.016;18.632;2023-08-07T11:02:12;99274.03;;;16.29;100.00
36380;BME280;22411;53.016;18.632;2023-08-07T11:04:38;99283.69;;;16.28;100.00
36380;BME280;22411;53.016;18.632;2023-08-07T11:07:05;99288.53;;;16.39;100.00
36380;BME280;22411;53.016;18.632;2023-08-07T11:09:30;99280.03;;;16.68;100.00
36380;BME280;22411;53.016;18.632;2023-08-07T11:11:56;99288.91;;;16.90;100.00
36380;BME280;22411;53.016;18.632;2023-08-07T11:14:21;99285.09;;;17.16;100.00
36380;BME280;22411;53.016;18.632;2023-08-07T11:16:48;99284.28;;;17.15;100.00
36380;BME280;22411;53.016;18.632;2023-08-07T11:19:15;99281.25;;;17.27;100.00
36380;BME280;22411;53.016;18.632;2023-08-07T11:21:42;99291.25;;;17.23;100.00
36380;BME280;22411;53.016;18.632;2023-08-07T11:24:07;99287.63;;;17.09;100.00
36380;BME280;22411;53.016;18.632;2023-08-07T11:26:33;99304.25;;;17.16;100.00
36380;BME280;22411;53.016;18.632;2023-08-07T11:28:59;99305.13;;;17.09;100.00
36380;BME280;22411;53.016;18.632;2023-08-07T11:31:25;99314.44;;;17.11;100.00
36380;BME280;22411;53.016;18.632;2023-08-07T11:33:51;99309.09;;;17.05;100.00
36380;BME280;22411;53.016;18.632;2023-08-07T11:36:18;99314.38;;;16.96;100.00
36380;BME280;22411;53.016;18.632;2023-08-07T11:38:44;99318.91;;;16.80;100.00
36380;BME280;22411;53.016;18.632;2023-08-07T11:41:12;99334.47;;;16.73;100.00
36380;BME280;22411;53.016;18.632;2023-08-07T11:43:38;99340.09;;;16.54;100.00
36380;BME280;22411;53.016;18.632;2023-08-07T11:46:06;99333.03;;;15.76;100.00
36380;BME280;22411;53.016;18.632;2023-08-07T11:48:35;99320.00;;;15.10;100.00
36380;BME280;22411;53.016;18.632;2023-08-07T11:51:03;99320.97;;;15.01;100.00
36380;BME280;22411;53.016;18.632;2023-08-07T11:53:31;99325.69;;;14.89;100.00
36380;BME280;22411;53.016;18.632;2023-08-07T11:55:59;99322.72;;;14.84;100.00
36380;BME280;22411;53.016;18.632;2023-08-07T11:58:26;99303.00;;;14.90;100.00
36380;BME280;22411;53.016;18.632;2023-08-07T12:00:53;99306.63;;;15.05;100.00
36380;BME280;22411;53.016;18.632;2023-08-07T12:03:28;99296.66;;;15.17;100.00
36380;BME280;22411;53.016;18.632;2023-08-07T12:05:58;99301.38;;;15.38;100.00
36380;BME280;22411;53.016;18.632;2023-08-07T12:08:25;99301.03;;;15.57;100.00
36380;BME280;22411;53.016;18.632;2023-08-07T12:10:56;99293.00;;;15.83;100.00
36380;BME280;22411;53.016;18.632;2023-08-07T12:13:25;99304.03;;;16.02;100.00
36380;BME280;22411;53.016;18.632;2023-08-07T12:15:56;99302.16;;;16.27;100.00
36380;BME280;22411;53.016;18.632;2023-08-07T12:18:23;99305.00;;;16.48;100.00
36380;BME280;22411;53.016;18.632;2023-08-07T12:20:50;99293.81;;;16.62;100.00
36380;BME280;22411;53.016;18.632;2023-08-07T12:23:18;99307.72;;;16.55;100.00
36380;BME280;22411;53.016;18.632;2023-08-07T12:25:46;99295.88;;;16.75;100.00
36380;BME280;22411;53.016;18.632;2023-08-07T12:28:12;99311.16;;;16.86;100.00
36380;BME280;22411;53.016;18.632;2023-08-07T12:30:38;99305.66;;;17.04;100.00
36380;BME280;22411;53.016;18.632;2023-08-07T12:33:04;99301.81;;;17.15;100.00
36380;BME280;22411;53.016;18.632;2023-08-07T12:35:31;99301.00;;;17.29;100.00
36380;BME280;22411;53.016;18.632;2023-08-07T12:37:56;99294.13;;;17.51;100.00
36380;BME280;22411;53.016;18.632;2023-08-07T12:40:22;99290.69;;;17.65;100.00